createdAt,value
2023-04-11T00:01:07.872Z,48.28
2023-04-11T00:03:39.015Z,51.67
2023-04-11T00:06:07.123Z,57.55
2023-04-11T00:08:34.738Z,51.50
2023-04-11T00:11:02.080Z,55.50
2023-04-11T00:13:29.660Z,55.20
2023-04-11T00:15:59.419Z,49.30
2023-04-11T00:18:27.281Z,56.38
2023-04-11T00:20:54.421Z,51.15
2023-04-11T00:23:21.941Z,50.60
2023-04-11T00:25:49.029Z,52.83
2023-04-11T00:28:16.609Z,47.30
2023-04-11T00:30:43.851Z,48.22
2023-04-11T00:33:11.861Z,48.80
2023-04-11T00:35:40.102Z,54.25
2023-04-11T00:38:07.692Z,59.22
2023-04-11T00:40:34.999Z,53.30
2023-04-11T00:43:02.753Z,53.40
2023-04-11T00:45:30.184Z,53.85
2023-04-11T00:47:58.753Z,60.47
2023-04-11T00:50:26.586Z,53.38
2023-04-11T00:52:55.725Z,51.75
2023-04-11T00:55:23.211Z,48.47
2023-04-11T00:57:55.112Z,48.60
2023-04-11T01:00:23.034Z,47.42
2023-04-11T01:02:50.736Z,54.00
2023-04-11T01:05:19.312Z,63.97
2023-04-11T01:07:49.243Z,47.05
2023-04-11T01:10:17.003Z,53.85
2023-04-11T01:12:46.178Z,48.90
2023-04-11T01:15:13.654Z,56.00
2023-04-11T01:17:44.294Z,47.22
2023-04-11T01:20:13.197Z,50.78
2023-04-11T01:22:41.976Z,54.03
2023-04-11T01:25:09.890Z,50.47
2023-04-11T01:27:37.902Z,50.97
2023-04-11T01:30:06.303Z,52.92
2023-04-11T01:32:35.511Z,52.78
2023-04-11T01:35:04.669Z,47.90
2023-04-11T01:37:32.328Z,52.67
2023-04-11T01:39:59.698Z,51.97
2023-04-11T01:42:27.489Z,62.70
2023-04-11T01:44:54.814Z,60.33
2023-04-11T01:47:22.726Z,63.53
2023-04-11T01:49:50.976Z,58.50
2023-04-11T01:52:18.434Z,56.80
2023-04-11T01:54:45.898Z,57.70
2023-04-11T01:57:13.646Z,55.10
2023-04-11T01:59:40.859Z,57.45
2023-04-11T02:02:08.563Z,66.72
2023-04-11T02:04:35.868Z,74.28
2023-04-11T02:07:03.305Z,80.75
2023-04-11T02:09:30.658Z,70.57
2023-04-11T02:11:59.911Z,60.20
2023-04-11T02:14:27.322Z,63.03
2023-04-11T02:16:56.572Z,70.18
2023-04-11T02:19:26.310Z,84.93
2023-04-11T02:21:54.013Z,73.10
2023-04-11T02:24:21.551Z,70.63
2023-04-11T02:26:49.492Z,76.45
2023-04-11T02:29:18.137Z,74.60
2023-04-11T02:31:48.620Z,68.85
2023-04-11T02:34:17.938Z,68.60
2023-04-11T02:36:46.108Z,84.50
2023-04-11T02:39:14.080Z,85.57
2023-04-11T02:41:42.728Z,88.20
2023-04-11T02:44:12.109Z,97.97
2023-04-11T02:46:41.322Z,79.28
2023-04-11T02:49:09.460Z,90.95
2023-04-11T02:51:37.240Z,84.05
2023-04-11T02:54:06.349Z,83.43
2023-04-11T02:56:38.883Z,75.35
2023-04-11T02:59:07.216Z,66.80
2023-04-11T03:01:39.944Z,71.40
2023-04-11T03:04:10.482Z,78.25
2023-04-11T03:06:54.943Z,80.53
2023-04-11T03:09:23.585Z,83.57
2023-04-11T03:11:51.468Z,75.28
2023-04-11T03:14:18.940Z,73.57
2023-04-11T03:16:46.992Z,69.38
2023-04-11T03:19:14.443Z,72.82
2023-04-11T03:21:42.211Z,66.25
2023-04-11T03:24:09.932Z,62.88
2023-04-11T03:26:37.597Z,67.68
2023-04-11T03:31:51.075Z,63.85
2023-04-11T03:34:19.112Z,69.28
2023-04-11T03:36:46.752Z,62.00
2023-04-11T03:39:14.770Z,61.28
2023-04-11T03:41:42.648Z,58.15
2023-04-11T03:44:11.339Z,54.88
2023-04-11T03:46:39.223Z,63.25
2023-04-11T03:49:07.110Z,60.05
2023-04-11T03:51:35.221Z,54.53
2023-04-11T03:54:07.486Z,57.20
2023-04-11T03:56:40.947Z,56.08
2023-04-11T03:59:14.738Z,62.08
2023-04-11T04:01:54.546Z,56.33
2023-04-11T04:04:22.266Z,60.25
2023-04-11T04:06:59.254Z,58.45
2023-04-11T04:09:34.654Z,58.78
2023-04-11T04:12:02.708Z,62.03
2023-04-11T04:14:43.150Z,59.63
2023-04-11T04:17:12.192Z,60.85
2023-04-11T04:19:39.823Z,62.53
2023-04-11T04:22:12.130Z,60.38
2023-04-11T04:24:47.837Z,65.65
2023-04-11T04:27:22.104Z,60.00
2023-04-11T04:29:56.229Z,63.97
2023-04-11T04:32:41.202Z,62.80
2023-04-11T04:35:14.290Z,64.80
2023-04-11T04:37:46.047Z,82.35
2023-04-11T04:40:26.258Z,105.10
2023-04-11T04:43:02.415Z,87.45
2023-04-11T04:45:51.407Z,74.88
2023-04-11T04:48:25.746Z,67.03
2023-04-11T04:50:53.645Z,59.38
2023-04-11T04:53:21.538Z,46.75
2023-04-11T04:55:56.753Z,51.05
2023-04-11T04:58:25.779Z,50.00
2023-04-11T05:00:56.349Z,41.10
2023-04-11T05:03:34.911Z,39.13
2023-04-11T05:06:07.580Z,37.90
2023-04-11T05:08:35.657Z,40.30
2023-04-11T05:11:06.717Z,39.80
2023-04-11T05:13:34.986Z,41.53
2023-04-11T05:16:04.423Z,38.45
2023-04-11T05:18:32.319Z,40.80
2023-04-11T05:20:59.729Z,35.67
2023-04-11T05:23:33.936Z,34.03
2023-04-11T05:26:03.510Z,34.75
2023-04-11T05:28:33.871Z,34.25
2023-04-11T05:31:04.438Z,31.67
2023-04-11T05:33:32.143Z,30.25
2023-04-11T05:36:00.274Z,31.25
2023-04-11T05:38:28.305Z,29.30
2023-04-11T05:40:55.598Z,28.25
2023-04-11T05:43:23.345Z,28.90
2023-04-11T05:45:50.959Z,26.10
2023-04-11T05:48:23.163Z,37.67
2023-04-11T05:50:50.950Z,28.73
2023-04-11T05:53:19.069Z,29.83
2023-04-11T05:55:46.665Z,32.58
2023-04-11T05:58:14.360Z,32.40
2023-04-11T06:00:41.682Z,30.13
2023-04-11T06:03:09.823Z,26.02
2023-04-11T06:05:37.341Z,26.98
2023-04-11T06:08:07.148Z,27.77
2023-04-11T06:10:35.596Z,27.42
2023-04-11T06:13:03.295Z,27.92
2023-04-11T06:15:30.727Z,24.90
2023-04-11T06:17:58.445Z,29.55
2023-04-11T06:20:26.009Z,28.95
2023-04-11T06:22:53.596Z,25.92
2023-04-11T06:25:21.939Z,27.92
2023-04-11T06:27:50.576Z,28.83
2023-04-11T06:30:17.889Z,25.38
2023-04-11T06:32:45.987Z,24.67
2023-04-11T06:35:13.392Z,25.27
2023-04-11T06:37:42.711Z,24.08
2023-04-11T06:40:10.602Z,22.73
2023-04-11T06:42:38.312Z,25.33
2023-04-11T06:45:06.688Z,25.63
2023-04-11T06:47:35.711Z,24.95
2023-04-11T06:50:03.367Z,28.55
2023-04-11T06:52:31.382Z,27.15
2023-04-11T06:54:58.688Z,22.88
2023-04-11T06:57:26.389Z,23.23
2023-04-11T06:59:53.718Z,20.17
2023-04-11T07:02:23.399Z,18.17
2023-04-11T07:04:51.912Z,20.80
2023-04-11T07:07:19.606Z,19.05
2023-04-11T07:09:47.719Z,17.38
2023-04-11T07:12:15.801Z,19.33
2023-04-11T07:14:43.330Z,19.15
2023-04-11T07:17:11.181Z,20.17
2023-04-11T07:19:38.545Z,17.88
2023-04-11T07:22:06.383Z,20.52
2023-04-11T07:24:33.728Z,21.77
2023-04-11T07:27:02.092Z,17.10
2023-04-11T07:29:29.657Z,16.30
2023-04-11T07:31:57.462Z,15.38
2023-04-11T07:34:25.126Z,15.68
2023-04-11T07:36:52.648Z,15.88
2023-04-11T07:39:19.943Z,13.80
2023-04-11T07:41:48.584Z,16.70
2023-04-11T07:44:16.473Z,15.70
2023-04-11T07:46:44.246Z,14.82
2023-04-11T07:49:11.680Z,16.55
2023-04-11T07:51:39.901Z,18.05
2023-04-11T07:54:08.887Z,15.38
2023-04-11T07:56:36.632Z,15.48
2023-04-11T07:59:04.610Z,13.30
2023-04-11T08:01:32.651Z,14.55
2023-04-11T08:04:00.484Z,40.60
2023-04-11T08:06:29.385Z,19.08
2023-04-11T08:08:58.870Z,14.70
2023-04-11T08:11:26.765Z,15.02
2023-04-11T08:13:54.205Z,17.85
2023-04-11T08:16:22.317Z,11.15
2023-04-11T08:18:49.608Z,15.07
2023-04-11T08:21:17.300Z,19.60
2023-04-11T08:23:44.586Z,11.60
2023-04-11T08:26:12.982Z,14.65
2023-04-11T08:28:42.804Z,14.23
2023-04-11T08:31:13.384Z,8.50
2023-04-11T08:33:41.252Z,9.23
2023-04-11T08:36:10.655Z,9.40
2023-04-11T08:38:38.793Z,8.85
2023-04-11T08:41:06.591Z,8.77
2023-04-11T08:43:35.068Z,7.88
2023-04-11T08:46:04.222Z,10.00
2023-04-11T08:48:32.602Z,8.55
2023-04-11T08:51:00.477Z,10.10
2023-04-11T08:53:28.544Z,8.20
2023-04-11T08:55:56.233Z,7.20
2023-04-11T08:58:23.522Z,6.70
2023-04-11T09:00:51.307Z,7.38
2023-04-11T09:03:18.862Z,5.20
2023-04-11T09:05:49.518Z,5.90
2023-04-11T09:08:17.449Z,11.45
2023-04-11T09:10:46.447Z,5.70
2023-04-11T09:13:26.745Z,6.28
2023-04-11T09:16:09.500Z,7.55
2023-04-11T09:18:41.683Z,10.27
2023-04-11T09:21:14.082Z,8.38
2023-04-11T09:23:42.023Z,6.30
2023-04-11T09:26:11.370Z,6.72
2023-04-11T09:28:52.555Z,7.22
2023-04-11T09:31:21.429Z,6.57
2023-04-11T09:33:56.218Z,10.82
2023-04-11T09:36:25.437Z,10.32
2023-04-11T09:38:54.167Z,5.03
2023-04-11T09:41:34.986Z,6.38
2023-04-11T09:44:02.647Z,5.70
2023-04-11T09:46:30.419Z,5.43
2023-04-11T09:48:57.934Z,5.28
2023-04-11T09:53:58.091Z,5.85
2023-04-11T09:56:27.780Z,75.05
2023-04-11T09:58:57.624Z,11.23
2023-04-11T10:01:25.764Z,3.38
2023-04-11T10:03:54.456Z,8.05
2023-04-11T10:06:34.366Z,4.97
2023-04-11T10:09:09.813Z,3.17
2023-04-11T10:11:37.782Z,4.20
2023-04-11T10:14:05.122Z,4.65
2023-04-11T10:16:34.503Z,6.85
2023-04-11T10:19:02.109Z,7.65
2023-04-11T10:21:36.716Z,3.25
2023-04-11T10:24:13.468Z,7.68
2023-04-11T10:26:55.179Z,12.95
2023-04-11T10:29:34.974Z,5.97
2023-04-11T10:32:22.421Z,6.28
2023-04-11T10:34:52.656Z,10.30
2023-04-11T10:37:39.170Z,8.90
2023-04-11T10:40:10.643Z,6.25
2023-04-11T10:42:42.496Z,7.05
2023-04-11T10:45:29.469Z,5.03
2023-04-11T10:47:57.401Z,5.03
2023-04-11T10:50:27.603Z,7.10
2023-04-11T10:53:05.306Z,9.95
2023-04-11T10:55:50.153Z,7.00
2023-04-11T10:58:22.481Z,8.13
2023-04-11T11:00:50.073Z,10.52
2023-04-11T11:03:19.440Z,7.88
2023-04-11T11:06:08.979Z,6.80
2023-04-11T11:08:46.831Z,7.78
2023-04-11T11:11:15.425Z,10.50
2023-04-11T11:13:54.119Z,8.77
2023-04-11T11:16:23.673Z,8.57
2023-04-11T11:18:56.183Z,6.05
2023-04-11T11:21:28.181Z,6.07
2023-04-11T11:26:46.884Z,6.80
2023-04-11T11:29:14.601Z,6.75
2023-04-11T11:31:46.050Z,7.40
2023-04-11T11:34:24.195Z,7.15
2023-04-11T11:36:53.019Z,5.07
2023-04-11T11:39:22.123Z,5.25
2023-04-11T11:41:51.295Z,4.18
2023-04-11T11:44:28.988Z,5.65
2023-04-11T11:47:06.311Z,4.35
2023-04-11T11:49:53.197Z,5.32
2023-04-11T11:52:41.087Z,5.95
2023-04-11T11:55:32.657Z,7.57
2023-04-11T11:58:02.361Z,5.35
2023-04-11T12:00:32.818Z,5.50
2023-04-11T12:03:01.074Z,6.00
2023-04-11T12:05:33.325Z,7.68
2023-04-11T12:08:06.029Z,6.30
2023-04-11T12:10:38.415Z,7.13
2023-04-11T12:13:27.223Z,7.32
2023-04-11T12:15:56.363Z,6.18
2023-04-11T12:18:24.881Z,8.15
2023-04-11T12:20:53.210Z,7.45
2023-04-11T12:23:21.379Z,8.07
2023-04-11T12:25:49.175Z,9.02
2023-04-11T12:28:16.648Z,9.05
2023-04-11T12:30:44.338Z,9.00
2023-04-11T12:33:11.656Z,8.10
2023-04-11T12:35:39.501Z,6.55
2023-04-11T12:38:07.965Z,6.28
2023-04-11T12:40:36.040Z,7.60
2023-04-11T12:43:03.404Z,8.05
2023-04-11T12:45:32.624Z,6.50
2023-04-11T12:48:00.264Z,7.40
2023-04-11T12:50:28.051Z,10.15
2023-04-11T12:52:56.333Z,11.90
2023-04-11T12:55:24.320Z,7.53
2023-04-11T12:57:51.626Z,9.68
2023-04-11T13:00:19.551Z,7.80
2023-04-11T13:02:47.213Z,7.95
2023-04-11T13:05:16.731Z,7.88
2023-04-11T13:07:45.342Z,6.35
2023-04-11T13:10:14.516Z,6.95
2023-04-11T13:12:46.022Z,8.20
2023-04-11T13:15:16.542Z,8.18
2023-04-11T13:17:44.214Z,30.10
2023-04-11T13:20:13.204Z,6.93
2023-04-11T13:22:41.789Z,9.30
2023-04-11T13:25:10.611Z,7.97
2023-04-11T13:27:39.727Z,8.88
2023-04-11T13:30:10.096Z,10.45
2023-04-11T13:32:37.720Z,7.47
2023-04-11T13:35:06.425Z,9.10
2023-04-11T13:37:33.954Z,8.90
2023-04-11T13:40:01.758Z,13.20
2023-04-11T13:42:29.181Z,10.45
2023-04-11T13:44:56.842Z,11.00
2023-04-11T13:47:24.324Z,31.00
2023-04-11T13:49:52.013Z,12.32
2023-04-11T13:52:19.371Z,8.55
2023-04-11T13:54:47.024Z,9.35
2023-04-11T13:57:14.311Z,9.70
2023-04-11T13:59:42.104Z,9.38
2023-04-11T14:02:09.572Z,10.70
2023-04-11T14:04:37.550Z,9.35
2023-04-11T14:07:05.022Z,11.45
2023-04-11T14:09:32.978Z,10.02
2023-04-11T14:12:01.626Z,8.68
2023-04-11T14:14:29.754Z,15.55
2023-04-11T14:16:57.188Z,12.02
2023-04-11T14:19:25.279Z,7.28
2023-04-11T14:21:52.585Z,8.38
2023-04-11T14:24:22.507Z,15.15
2023-04-11T14:26:50.528Z,12.00
2023-04-11T14:29:19.877Z,10.35
2023-04-11T14:31:48.576Z,10.52
2023-04-11T14:34:18.624Z,9.48
2023-04-11T14:36:46.036Z,9.85
2023-04-11T14:39:13.809Z,8.43
2023-04-11T14:41:41.482Z,11.90
2023-04-11T14:44:09.306Z,12.75
2023-04-11T14:46:36.893Z,7.40
2023-04-11T14:49:06.689Z,10.93
2023-04-11T14:51:33.992Z,12.50
2023-04-11T14:54:01.532Z,7.88
2023-04-11T14:56:28.818Z,8.73
2023-04-11T14:58:56.542Z,12.18
2023-04-11T15:01:24.624Z,17.67
2023-04-11T15:03:52.366Z,10.82
2023-04-11T15:06:20.014Z,10.38
2023-04-11T15:08:49.524Z,8.07
2023-04-11T15:11:17.912Z,8.48
2023-04-11T15:13:48.489Z,23.20
2023-04-11T15:16:17.464Z,8.00
2023-04-11T15:18:46.648Z,12.60
2023-04-11T15:21:15.164Z,8.43
2023-04-11T15:23:44.402Z,7.78
2023-04-11T15:26:11.743Z,7.60
2023-04-11T15:28:40.560Z,10.43
2023-04-11T15:31:09.533Z,7.40
2023-04-11T15:33:38.450Z,8.13
2023-04-11T15:36:07.404Z,8.45
2023-04-11T15:38:36.281Z,10.75
2023-04-11T15:41:03.756Z,6.05
2023-04-11T15:43:32.373Z,6.25
2023-04-11T15:46:01.681Z,9.68
2023-04-11T15:48:29.716Z,7.28
2023-04-11T15:50:57.525Z,14.60
2023-04-11T15:53:25.448Z,7.00
2023-04-11T15:55:53.201Z,11.68
2023-04-11T15:58:21.153Z,17.08
2023-04-11T16:00:48.865Z,8.75
2023-04-11T16:03:16.746Z,8.10
2023-04-11T16:05:45.283Z,6.20
2023-04-11T16:08:13.215Z,6.68
2023-04-11T16:10:41.109Z,6.28
2023-04-11T16:13:09.312Z,8.73
2023-04-11T16:15:36.935Z,7.65
2023-04-11T16:18:04.661Z,8.07
2023-04-11T16:20:35.241Z,9.63
2023-04-11T16:23:03.193Z,11.82
2023-04-11T16:25:31.320Z,6.93
2023-04-11T16:27:59.051Z,8.40
2023-04-11T16:30:28.040Z,7.90
2023-04-11T16:32:55.137Z,7.43
2023-04-11T16:35:22.832Z,6.55
2023-04-11T16:37:50.246Z,6.95
2023-04-11T16:40:18.113Z,13.15
2023-04-11T16:42:45.383Z,6.93
2023-04-11T16:45:13.302Z,7.30
2023-04-11T16:47:40.585Z,14.82
2023-04-11T16:50:08.623Z,10.00
2023-04-11T16:52:35.917Z,7.22
2023-04-11T16:55:03.748Z,14.95
2023-04-11T16:57:33.435Z,8.45
2023-04-11T17:00:11.896Z,8.48
2023-04-11T17:02:39.315Z,11.48
2023-04-11T17:05:08.022Z,17.73
2023-04-11T17:07:35.452Z,12.90
2023-04-11T17:10:03.291Z,11.93
2023-04-11T17:12:31.812Z,20.98
2023-04-11T17:15:02.790Z,11.95
2023-04-11T17:17:30.203Z,12.43
2023-04-11T17:19:57.908Z,9.48
2023-04-11T17:22:25.488Z,13.00
2023-04-11T17:24:53.972Z,10.98
2023-04-11T17:27:21.145Z,14.05
2023-04-11T17:29:48.900Z,10.90
2023-04-11T17:32:16.394Z,12.48
2023-04-11T17:34:44.495Z,16.35
2023-04-11T17:37:11.861Z,31.65
2023-04-11T17:39:39.673Z,22.48
2023-04-11T17:42:07.019Z,9.27
2023-04-11T17:44:34.774Z,15.15
2023-04-11T17:47:02.171Z,11.40
2023-04-11T17:49:29.783Z,15.77
2023-04-11T17:51:59.639Z,13.35
2023-04-11T17:54:28.645Z,22.55
2023-04-11T17:56:56.521Z,17.05
2023-04-11T17:59:25.853Z,23.92
2023-04-11T18:01:56.310Z,20.05
2023-04-11T18:04:24.626Z,16.25
2023-04-11T18:06:51.932Z,15.23
2023-04-11T18:09:20.628Z,16.15
2023-04-11T18:11:48.137Z,13.02
2023-04-11T18:14:16.864Z,15.45
2023-04-11T18:16:46.935Z,14.82
2023-04-11T18:19:14.935Z,15.73
2023-04-11T18:21:42.950Z,16.00
2023-04-11T18:24:11.000Z,17.52
2023-04-11T18:26:38.458Z,16.27
2023-04-11T18:29:06.360Z,18.67
2023-04-11T18:31:35.558Z,17.70
2023-04-11T18:34:06.360Z,19.48
2023-04-11T18:36:34.779Z,18.45
2023-04-11T18:39:02.569Z,22.77
2023-04-11T18:41:29.897Z,56.15
2023-04-11T18:43:57.786Z,27.48
2023-04-11T18:46:26.165Z,29.60
2023-04-11T18:48:54.021Z,20.27
2023-04-11T18:51:21.472Z,20.38
2023-04-11T18:53:49.247Z,21.10
2023-04-11T18:56:16.921Z,20.55
2023-04-11T18:58:46.510Z,20.83
2023-04-11T19:01:17.038Z,25.98
2023-04-11T19:03:46.247Z,26.42
2023-04-11T19:06:14.181Z,23.67
2023-04-11T19:08:42.069Z,29.80
2023-04-11T19:11:09.846Z,23.10
2023-04-11T19:13:37.742Z,23.40
2023-04-11T19:16:05.573Z,22.75
2023-04-11T19:18:33.729Z,29.60
2023-04-11T19:21:01.199Z,22.85
2023-04-11T19:23:29.115Z,21.98
2023-04-11T19:25:57.580Z,22.27
2023-04-11T19:28:25.877Z,25.45
2023-04-11T19:30:53.440Z,32.40
2023-04-11T19:33:24.107Z,26.13
2023-04-11T19:35:51.837Z,26.27
2023-04-11T19:38:22.044Z,28.83
2023-04-11T19:40:49.855Z,30.38
2023-04-11T19:43:18.059Z,23.73
2023-04-11T19:45:46.477Z,24.85
2023-04-11T19:48:16.302Z,23.70
2023-04-11T19:50:44.730Z,25.83
2023-04-11T19:53:12.694Z,28.30
2023-04-11T19:55:40.579Z,28.52
2023-04-11T19:58:08.396Z,27.48
2023-04-11T20:00:37.743Z,44.00
2023-04-11T20:03:08.155Z,33.58
2023-04-11T20:05:36.299Z,55.88
2023-04-11T20:08:04.158Z,44.63
2023-04-11T20:10:31.898Z,31.33
2023-04-11T20:13:00.195Z,34.17
2023-04-11T20:15:28.510Z,37.80
2023-04-11T20:17:56.534Z,273.75
2023-04-11T20:20:28.601Z,60.97
2023-04-11T20:22:57.022Z,35.20
2023-04-11T20:25:24.417Z,35.38
2023-04-11T20:27:52.827Z,29.38
2023-04-11T20:30:21.373Z,33.50
2023-04-11T20:32:49.523Z,29.05
2023-04-11T20:35:17.029Z,38.35
2023-04-11T20:37:45.290Z,36.53
2023-04-11T20:40:14.502Z,33.85
2023-04-11T20:42:43.050Z,32.67
2023-04-11T20:45:15.980Z,28.05
2023-04-11T20:47:50.005Z,34.35
2023-04-11T20:50:19.500Z,34.47
2023-04-11T20:52:51.425Z,26.67
2023-04-11T20:55:19.532Z,26.67
2023-04-11T20:57:47.196Z,31.77
2023-04-11T21:00:15.394Z,26.48
2023-04-11T21:02:45.948Z,36.53
2023-04-11T21:05:14.393Z,31.92
2023-04-11T21:07:43.429Z,27.95
2023-04-11T21:10:12.325Z,41.45
2023-04-11T21:12:41.440Z,32.72
2023-04-11T21:15:09.482Z,32.63
2023-04-11T21:17:39.691Z,37.03
2023-04-11T21:20:18.068Z,30.83
2023-04-11T21:22:53.057Z,40.63
2023-04-11T21:25:21.249Z,40.38
2023-04-11T21:27:49.987Z,41.80
2023-04-11T21:30:17.405Z,39.47
2023-04-11T21:32:45.083Z,42.75
2023-04-11T21:35:12.579Z,52.38
2023-04-11T21:37:40.298Z,39.15
2023-04-11T21:40:08.417Z,39.25
2023-04-11T21:42:35.999Z,37.92
2023-04-11T21:45:03.620Z,34.95
2023-04-11T21:47:31.430Z,30.70
2023-04-11T21:49:58.889Z,38.03
2023-04-11T21:52:26.558Z,34.65
2023-04-11T21:54:53.829Z,37.40
2023-04-11T21:57:21.468Z,35.22
2023-04-11T21:59:48.626Z,39.58
2023-04-11T22:02:16.441Z,31.65
2023-04-11T22:04:56.389Z,37.08
2023-04-11T22:07:50.325Z,35.13
2023-04-11T22:10:22.880Z,37.10
2023-04-11T22:12:53.991Z,36.88
2023-04-11T22:15:21.586Z,38.65
2023-04-11T22:17:51.392Z,35.63
2023-04-11T22:20:19.749Z,43.30
2023-04-11T22:22:48.241Z,38.80
2023-04-11T22:25:18.437Z,41.55
2023-04-11T22:27:46.042Z,35.42
2023-04-11T22:30:14.901Z,35.30
2023-04-11T22:32:42.660Z,32.75
2023-04-11T22:35:10.668Z,36.67
2023-04-11T22:37:38.337Z,34.38
2023-04-11T22:40:06.620Z,35.22
2023-04-11T22:42:34.988Z,33.72
2023-04-11T22:45:02.262Z,36.88
2023-04-11T22:47:30.140Z,37.63
2023-04-11T22:49:58.088Z,36.40
2023-04-11T22:52:26.277Z,41.03
2023-04-11T22:54:55.215Z,34.83
2023-04-11T22:57:22.998Z,34.42
2023-04-11T22:59:50.233Z,34.83
2023-04-11T23:02:18.037Z,34.80
2023-04-11T23:04:45.701Z,37.83
2023-04-11T23:07:13.154Z,34.40
2023-04-11T23:09:40.488Z,43.08
2023-04-11T23:12:08.450Z,38.33
2023-04-11T23:14:35.800Z,35.67
2023-04-11T23:17:03.640Z,42.42
2023-04-11T23:19:31.101Z,40.35
2023-04-11T23:21:59.558Z,38.97
2023-04-11T23:24:29.117Z,39.50
2023-04-11T23:26:57.198Z,39.50
2023-04-11T23:29:24.762Z,41.28
2023-04-11T23:31:52.404Z,43.38
2023-04-11T23:34:19.828Z,43.17
2023-04-11T23:36:48.314Z,49.10
2023-04-11T23:39:15.432Z,46.38
2023-04-11T23:41:42.901Z,45.10
2023-04-11T23:44:10.117Z,44.30
2023-04-11T23:46:38.927Z,42.83
2023-04-11T23:49:06.291Z,46.63
2023-04-11T23:51:34.100Z,44.17
2023-04-11T23:54:01.785Z,43.75
2023-04-11T23:56:29.644Z,44.20
2023-04-11T23:58:57.265Z,40.28
